Time;durP1;ratioP1;P1;durP2;ratioP2;P2;SDS_P1;SDS_P2;PMS_P1;PMS_P2;Temp;Humidity;BMP_temperature;BMP_pressure;BME280_temperature;BME280_humidity;BME280_pressure;Samples;Min_cycle;Max_cycle;Signal;HPM_P1;HPM_P2
2023/04/12 00:02:16;;;;;;;0.38;0.38;;;7.90;99.90;;;;;;5111764;27;20427;-69
2023/04/12 00:04:43;;;;;;;0.90;0.50;;;7.90;99.90;;;;;;5095244;27;20428;-69
2023/04/12 00:07:10;;;;;;;0.30;0.30;;;7.90;99.90;;;;;;5122735;27;20430;-69
2023/04/12 00:09:38;;;;;;;0.70;0.60;;;7.90;99.90;;;;;;5096207;27;20437;-68
2023/04/12 00:12:05;;;;;;;8.00;0.30;;;7.80;99.90;;;;;;5102985;27;20501;-69
2023/04/12 00:14:32;;;;;;;1.05;0.38;;;7.80;99.90;;;;;;5113216;27;20532;-69
2023/04/12 00:16:59;;;;;;;4.90;0.60;;;7.80;99.90;;;;;;5120000;27;20471;-69
2023/04/12 00:19:26;;;;;;;2.10;0.60;;;7.80;99.90;;;;;;5101290;27;20496;-69
2023/04/12 00:21:53;;;;;;;0.40;0.40;;;7.90;99.90;;;;;;5094982;28;20415;-69
2023/04/12 00:24:25;;;;;;;0.80;0.60;;;7.90;99.90;;;;;;5119552;27;20436;-69
2023/04/12 00:26:52;;;;;;;0.20;0.20;;;7.90;99.90;;;;;;5112700;27;20422;-69
2023/04/12 00:29:20;;;;;;;0.30;0.30;;;7.90;99.90;;;;;;5123867;27;20986;-69
2023/04/12 00:31:49;;;;;;;0.30;0.30;;;7.90;99.90;;;;;;5102150;27;20420;-69
2023/04/12 00:34:19;;;;;;;1.10;0.60;;;7.90;99.90;;;;;;5113081;27;21057;-69
2023/04/12 00:36:46;;;;;;;0.30;0.30;;;7.80;99.90;;;;;;5110711;27;20485;-70
2023/04/12 00:39:12;;;;;;;0.20;0.20;;;7.70;99.90;;;;;;5111173;27;20522;-71
2023/04/12 00:41:39;;;;;;;0.23;0.20;;;7.70;99.90;;;;;;5100567;27;20912;-71
2023/04/12 00:44:06;;;;;;;2.40;0.60;;;7.70;99.90;;;;;;5110903;27;20845;-71
2023/04/12 00:46:33;;;;;;;0.50;0.50;;;7.70;99.90;;;;;;5115697;27;20421;-72
2023/04/12 00:49:02;;;;;;;1.02;0.47;;;7.60;99.90;;;;;;5117418;27;20459;-71
2023/04/12 00:51:32;;;;;;;0.30;0.30;;;7.60;99.90;;;;;;5096448;27;20496;-71
2023/04/12 00:54:02;;;;;;;0.20;0.20;;;7.60;99.90;;;;;;5113688;27;20477;-71
2023/04/12 00:56:30;;;;;;;0.43;0.43;;;7.60;99.90;;;;;;5113601;27;20826;-72
2023/04/12 00:58:57;;;;;;;0.20;0.20;;;7.60;99.90;;;;;;5117712;27;20429;-72
2023/04/12 01:01:24;;;;;;;0.30;0.30;;;7.60;99.90;;;;;;5105022;27;20431;-72
2023/04/12 01:03:53;;;;;;;1.05;0.75;;;7.60;99.90;;;;;;5111880;27;20460;-72
2023/04/12 01:06:28;;;;;;;1.77;0.70;;;7.60;99.90;;;;;;5115404;27;20505;-71
2023/04/12 01:08:59;;;;;;;0.30;0.30;;;7.60;99.90;;;;;;5123431;27;20422;-71
2023/04/12 01:11:45;;;;;;;0.35;0.35;;;7.60;99.90;;;;;;5112683;27;20457;-70
2023/04/12 01:14:27;;;;;;;1.90;1.00;;;7.50;99.90;;;;;;5109212;27;20833;-71
2023/04/12 01:16:59;;;;;;;0.70;0.70;;;7.50;99.90;;;;;;5088041;28;20425;-71
2023/04/12 01:19:34;;;;;;;0.30;0.30;;;7.50;99.90;;;;;;5107426;27;20421;-71
2023/04/12 01:22:12;;;;;;;0.43;0.43;;;7.40;99.90;;;;;;5113526;27;20475;-69
2023/04/12 01:25:03;;;;;;;1.00;0.40;;;7.40;99.90;;;;;;5093294;28;20438;-70
2023/04/12 01:27:47;;;;;;;1.17;0.40;;;7.30;99.90;;;;;;5103415;28;20513;-69
2023/04/12 01:30:18;;;;;;;0.35;0.35;;;7.20;99.90;;;;;;5118609;28;20422;-71
2023/04/12 01:32:52;;;;;;;0.20;0.20;;;7.10;99.90;;;;;;5111877;27;20835;-71
2023/04/12 01:35:21;;;;;;;2.40;0.82;;;7.10;99.90;;;;;;5105109;28;20462;-71
2023/04/12 01:37:48;;;;;;;0.30;0.30;;;7.00;99.90;;;;;;5113880;27;20440;-71
2023/04/12 01:40:18;;;;;;;0.70;0.30;;;7.00;99.90;;;;;;5107174;28;20460;-71
2023/04/12 01:42:45;;;;;;;0.20;0.20;;;6.90;99.90;;;;;;5112073;27;20422;-71
2023/04/12 01:45:11;;;;;;;0.40;0.40;;;6.90;99.90;;;;;;5122817;28;20418;-71
2023/04/12 01:47:39;;;;;;;0.20;0.20;;;6.90;1.00;;;;;;5099319;28;20765;-71
2023/04/12 01:50:31;;;;;;;0.70;0.47;;;7.00;99.90;;;;;;5103510;28;20819;-71
2023/04/12 01:53:15;;;;;;;0.68;0.68;;;6.90;1.00;;;;;;5105883;28;20460;-71
2023/04/12 01:55:47;;;;;;;0.10;0.10;;;6.90;99.90;;;;;;5096187;28;20422;-71
2023/04/12 01:58:19;;;;;;;2.00;0.57;;;6.90;1.00;;;;;;5111600;28;20427;-71
2023/04/12 02:00:47;;;;;;;1.83;0.60;;;6.90;4.00;;;;;;5101645;28;20824;-71
2023/04/12 02:03:14;;;;;;;0.20;0.20;;;6.90;99.90;;;;;;5102987;28;20502;-72
2023/04/12 02:05:41;;;;;;;0.20;0.20;;;6.90;1.00;;;;;;5096872;28;20963;-71
2023/04/12 02:08:09;;;;;;;4.60;0.30;;;6.80;99.90;;;;;;5102169;27;20448;-71
2023/04/12 02:10:38;;;;;;;1.40;0.30;;;6.80;99.90;;;;;;5114059;28;20436;-71
2023/04/12 02:13:05;;;;;;;0.38;0.38;;;6.80;1.00;;;;;;5117345;27;20450;-70
2023/04/12 02:15:33;;;;;;;0.10;0.10;;;6.80;1.00;;;;;;5115264;28;20431;-68
2023/04/12 02:18:00;;;;;;;0.60;0.25;;;6.80;99.90;;;;;;5091355;28;20425;-67
2023/04/12 02:20:27;;;;;;;0.30;0.30;;;6.80;99.90;;;;;;5098221;28;20421;-68
2023/04/12 02:22:55;;;;;;;0.30;0.30;;;6.80;1.00;;;;;;5118018;27;20429;-68
2023/04/12 02:25:22;;;;;;;0.30;0.30;;;6.80;1.00;;;;;;5115324;27;20498;-68
2023/04/12 02:27:52;;;;;;;0.25;0.25;;;6.80;35.50;;;;;;5117710;27;20429;-68
2023/04/12 02:30:19;;;;;;;0.40;0.40;;;6.70;99.90;;;;;;5113494;27;20805;-68
2023/04/12 02:32:47;;;;;;;0.13;0.13;;;6.70;99.90;;;;;;5116380;27;20761;-68
2023/04/12 02:35:17;;;;;;;1.00;0.40;;;6.70;99.90;;;;;;5111719;27;20839;-68
2023/04/12 02:37:47;;;;;;;1.80;0.60;;;6.70;99.90;;;;;;5120871;27;20426;-68
2023/04/12 02:40:14;;;;;;;0.45;0.45;;;6.70;99.90;;;;;;5113423;27;20419;-69
2023/04/12 02:42:43;;;;;;;0.50;0.50;;;6.70;99.90;;;;;;5108943;27;20466;-68
2023/04/12 02:45:10;;;;;;;0.25;0.25;;;6.70;99.90;;;;;;5103624;27;20428;-68
2023/04/12 02:47:39;;;;;;;0.20;0.20;;;6.70;99.90;;;;;;5117010;27;20464;-68
2023/04/12 02:50:07;;;;;;;1.00;0.57;;;6.70;99.90;;;;;;5107751;28;20433;-68
2023/04/12 02:52:34;;;;;;;3.35;0.65;;;6.60;1.00;;;;;;5097577;27;20908;-69
2023/04/12 02:55:01;;;;;;;0.80;0.80;;;6.60;1.00;;;;;;5097871;28;20477;-69
2023/04/12 02:57:28;;;;;;;0.20;0.20;;;6.60;1.00;;;;;;5121347;27;20475;-68
2023/04/12 02:59:55;;;;;;;0.85;0.38;;;6.60;1.00;;;;;;5117218;27;20478;-68
2023/04/12 03:02:22;;;;;;;0.20;0.20;;;6.70;1.00;;;;;;5112725;27;20888;-68
2023/04/12 03:04:53;;;;;;;2.40;0.20;;;6.60;1.00;;;;;;5112609;27;20834;-68
2023/04/12 03:07:21;;;;;;;0.40;0.38;;;6.60;1.00;;;;;;5118224;27;20422;-68
2023/04/12 03:09:51;;;;;;;1.00;0.40;;;6.50;1.00;;;;;;5106021;27;20418;-68
2023/04/12 03:12:18;;;;;;;0.20;0.20;;;6.50;1.00;;;;;;5110061;27;20450;-69
2023/04/12 03:14:45;;;;;;;0.90;0.70;;;6.60;1.00;;;;;;5114471;27;20454;-68
2023/04/12 03:17:11;;;;;;;0.30;0.30;;;6.50;1.00;;;;;;5118300;27;20452;-69
2023/04/12 03:19:38;;;;;;;0.22;0.22;;;6.60;1.00;;;;;;5120337;27;20505;-69
2023/04/12 03:22:06;;;;;;;0.20;0.20;;;6.50;1.00;;;;;;5106277;27;20445;-69
2023/04/12 03:24:33;;;;;;;0.50;0.50;;;6.50;1.00;;;;;;5109412;28;20481;-68
2023/04/12 03:27:04;;;;;;;0.90;0.20;;;6.50;1.00;;;;;;5107044;27;20534;-68
2023/04/12 03:29:31;;;;;;;0.10;0.10;;;6.50;1.00;;;;;;5116739;27;20513;-69
2023/04/12 03:31:58;;;;;;;1.80;0.43;;;6.50;1.00;;;;;;5110505;27;20428;-69
2023/04/12 03:34:30;;;;;;;0.40;0.30;;;6.50;1.00;;;;;;5119990;27;20517;-69
2023/04/12 03:36:59;;;;;;;0.08;0.08;;;6.50;1.00;;;;;;5112051;27;20431;-69
2023/04/12 03:39:26;;;;;;;0.20;0.20;;;6.50;1.00;;;;;;5120680;27;20432;-70
2023/04/12 03:41:53;;;;;;;0.40;0.30;;;6.50;1.00;;;;;;5129126;27;20501;-69
2023/04/12 03:44:20;;;;;;;0.20;0.20;;;6.50;1.00;;;;;;5097663;27;20426;-69
2023/04/12 03:46:47;;;;;;;0.55;0.55;;;6.50;1.00;;;;;;5106228;27;20498;-69
2023/04/12 03:49:15;;;;;;;0.25;0.25;;;6.50;1.00;;;;;;5101904;27;20507;-69
2023/04/12 03:51:42;;;;;;;1.00;0.10;;;6.50;1.00;;;;;;5117617;27;20422;-70
2023/04/12 03:54:11;;;;;;;0.28;0.28;;;6.50;1.00;;;;;;5116997;27;20420;-69
2023/04/12 03:56:38;;;;;;;0.40;0.28;;;6.50;1.00;;;;;;5105389;28;20967;-69
2023/04/12 03:59:08;;;;;;;0.20;0.20;;;6.50;5.60;;;;;;5103150;27;20457;-69
2023/04/12 04:01:36;;;;;;;1.13;0.50;;;6.50;18.10;;;;;;5110350;27;20420;-69
2023/04/12 04:04:04;;;;;;;1.00;0.50;;;6.50;22.00;;;;;;5106213;27;20804;-70
2023/04/12 04:06:31;;;;;;;2.88;0.50;;;6.50;30.80;;;;;;5093146;27;20779;-70
2023/04/12 04:08:58;;;;;;;0.52;0.32;;;6.60;39.30;;;;;;5102235;27;20450;-70
2023/04/12 04:11:26;;;;;;;0.45;0.45;;;6.50;41.50;;;;;;5113548;27;20429;-70
2023/04/12 04:13:53;;;;;;;0.30;0.30;;;6.60;44.50;;;;;;5103252;28;20514;-69
2023/04/12 04:16:20;;;;;;;0.52;0.52;;;6.60;53.60;;;;;;5111751;27;20458;-69
2023/04/12 04:18:47;;;;;;;0.30;0.30;;;6.60;68.10;;;;;;5112440;27;20428;-70
2023/04/12 04:21:14;;;;;;;0.65;0.65;;;6.60;82.00;;;;;;5123632;27;20909;-70
2023/04/12 04:23:43;;;;;;;0.50;0.50;;;6.60;89.20;;;;;;5116110;27;20424;-70
2023/04/12 04:26:11;;;;;;;0.30;0.30;;;6.60;92.00;;;;;;5119218;27;20424;-70
2023/04/12 04:28:41;;;;;;;0.20;0.20;;;6.60;93.60;;;;;;5122965;27;20424;-70
2023/04/12 04:31:12;;;;;;;7.70;0.30;;;6.60;91.00;;;;;;5103747;28;20920;-70
2023/04/12 04:33:40;;;;;;;0.17;0.17;;;6.60;84.20;;;;;;5118475;27;20489;-71
2023/04/12 04:36:08;;;;;;;0.15;0.13;;;6.60;83.50;;;;;;5100641;28;20516;-70
2023/04/12 04:38:35;;;;;;;2.80;0.30;;;6.60;74.30;;;;;;5090931;28;20479;-71
2023/04/12 04:41:02;;;;;;;0.30;0.10;;;6.60;72.80;;;;;;5098964;27;20950;-70
2023/04/12 04:43:30;;;;;;;0.20;0.20;;;6.60;76.40;;;;;;5117008;27;20430;-71
2023/04/12 04:45:57;;;;;;;0.82;0.73;;;6.60;72.00;;;;;;5110248;27;20430;-71
2023/04/12 04:48:24;;;;;;;0.20;0.20;;;6.60;67.40;;;;;;5100643;28;20487;-71
2023/04/12 04:50:51;;;;;;;1.70;0.70;;;6.60;67.70;;;;;;5093838;27;20424;-71
2023/04/12 04:53:20;;;;;;;0.43;0.17;;;6.60;66.90;;;;;;5111726;27;20428;-71
2023/04/12 04:55:48;;;;;;;0.10;0.10;;;6.60;64.60;;;;;;5122224;27;20426;-71
2023/04/12 04:58:15;;;;;;;0.70;0.40;;;6.60;57.20;;;;;;5104845;27;20446;-71
2023/04/12 05:00:43;;;;;;;0.10;0.10;;;6.60;56.30;;;;;;5100110;27;20425;-71
2023/04/12 05:03:10;;;;;;;0.50;0.25;;;6.70;55.40;;;;;;5101796;27;20437;-71
2023/04/12 05:05:37;;;;;;;0.20;0.20;;;6.70;48.10;;;;;;5116120;27;20426;-71
2023/04/12 05:08:05;;;;;;;0.10;0.10;;;6.70;49.60;;;;;;5104899;27;20443;-71
2023/04/12 05:10:31;;;;;;;0.00;0.00;;;6.70;50.60;;;;;;5112559;27;20479;-71
2023/04/12 05:12:58;;;;;;;0.15;0.15;;;6.70;49.70;;;;;;5116102;27;20418;-71
2023/04/12 05:15:32;;;;;;;0.10;0.10;;;6.70;44.20;;;;;;5083890;28;20505;-71
2023/04/12 05:17:59;;;;;;;0.13;0.13;;;6.70;42.20;;;;;;5099085;28;20492;-71
2023/04/12 05:20:26;;;;;;;0.40;0.30;;;6.70;44.50;;;;;;5107349;28;20448;-72
2023/04/12 05:22:53;;;;;;;0.40;0.40;;;6.80;44.20;;;;;;5108076;27;20850;-72
2023/04/12 05:25:23;;;;;;;0.28;0.28;;;6.80;47.30;;;;;;5107072;28;20420;-72
2023/04/12 05:27:49;;;;;;;0.40;0.20;;;6.80;46.00;;;;;;5103721;28;20497;-72
2023/04/12 05:30:17;;;;;;;0.20;0.20;;;6.80;40.50;;;;;;5104915;28;21103;-71
2023/04/12 05:32:47;;;;;;;0.50;0.30;;;6.80;34.90;;;;;;5112777;27;20411;-71
2023/04/12 05:35:14;;;;;;;0.13;0.13;;;6.80;31.00;;;;;;5095930;28;20431;-71
2023/04/12 05:37:41;;;;;;;0.20;0.20;;;6.80;23.70;;;;;;5087457;28;20449;-72
2023/04/12 05:40:08;;;;;;;0.70;0.20;;;6.80;12.80;;;;;;5094001;28;20462;-72
2023/04/12 05:42:36;;;;;;;0.10;0.10;;;6.80;2.00;;;;;;5100333;28;20416;-72
2023/04/12 05:45:04;;;;;;;0.40;0.20;;;6.80;1.00;;;;;;5107996;28;20495;-72
2023/04/12 05:47:31;;;;;;;1.10;0.30;;;6.80;1.00;;;;;;5092844;28;20431;-72
2023/04/12 05:50:02;;;;;;;0.10;0.10;;;6.80;1.00;;;;;;5093973;28;20432;-72
2023/04/12 05:52:36;;;;;;;1.70;0.10;;;6.80;1.00;;;;;;5091041;28;20426;-72
2023/04/12 05:55:04;;;;;;;0.10;0.10;;;6.80;1.00;;;;;;5092421;28;20434;-73
2023/04/12 05:57:30;;;;;;;0.10;0.10;;;6.80;1.00;;;;;;5103651;27;20426;-72
2023/04/12 05:59:57;;;;;;;0.10;0.10;;;6.80;1.00;;;;;;5113770;27;20444;-73
2023/04/12 06:02:24;;;;;;;0.20;0.20;;;6.80;1.00;;;;;;5097268;27;20433;-73
2023/04/12 06:04:54;;;;;;;0.90;0.30;;;6.80;1.00;;;;;;5113758;27;20463;-73
2023/04/12 06:07:21;;;;;;;0.05;0.05;;;6.80;1.00;;;;;;5109171;28;20426;-73
2023/04/12 06:09:48;;;;;;;0.10;0.10;;;6.80;1.00;;;;;;5098841;28;20552;-73
2023/04/12 06:12:15;;;;;;;0.33;0.30;;;6.80;1.00;;;;;;5107486;27;20485;-74
2023/04/12 06:14:42;;;;;;;0.15;0.15;;;6.80;1.00;;;;;;5107632;27;20434;-73
2023/04/12 06:17:09;;;;;;;0.30;0.20;;;6.80;1.00;;;;;;5108089;27;20436;-74
2023/04/12 06:19:36;;;;;;;0.08;0.08;;;6.80;1.00;;;;;;5102975;27;20970;-74
2023/04/12 06:22:02;;;;;;;0.10;0.10;;;6.80;1.00;;;;;;5120484;27;20420;-75
2023/04/12 06:24:29;;;;;;;0.20;0.10;;;6.80;1.00;;;;;;5099249;27;20504;-75
2023/04/12 06:26:56;;;;;;;0.00;0.00;;;6.80;1.00;;;;;;5120055;27;20427;-74
2023/04/12 06:29:22;;;;;;;0.00;0.00;;;6.80;1.00;;;;;;5106847;27;20424;-74
2023/04/12 06:31:49;;;;;;;0.10;0.10;;;6.80;1.00;;;;;;5098194;27;20547;-75
2023/04/12 06:34:16;;;;;;;0.30;0.30;;;6.80;8.20;;;;;;5101723;27;20428;-75
2023/04/12 06:36:46;;;;;;;1.40;0.30;;;6.90;14.80;;;;;;5119150;27;20521;-75
2023/04/12 06:39:15;;;;;;;0.10;0.10;;;6.90;9.60;;;;;;5105142;27;20464;-74
2023/04/12 06:41:42;;;;;;;0.30;0.30;;;6.90;7.00;;;;;;5098644;27;20486;-75
2023/04/12 06:44:09;;;;;;;0.10;0.10;;;6.90;2.20;;;;;;5114132;27;20848;-75
2023/04/12 06:46:39;;;;;;;0.00;0.00;;;6.90;7.20;;;;;;5101327;27;20527;-75
2023/04/12 06:49:06;;;;;;;0.10;0.10;;;7.00;8.90;;;;;;5100444;27;20430;-75
2023/04/12 06:51:36;;;;;;;0.10;0.10;;;7.00;5.50;;;;;;5111732;27;20431;-76
2023/04/12 06:54:03;;;;;;;0.10;0.10;;;7.00;6.40;;;;;;5095078;28;20429;-75
2023/04/12 06:56:29;;;;;;;0.25;0.25;;;7.00;2.20;;;;;;5100213;27;20437;-76
2023/04/12 06:58:57;;;;;;;0.20;0.20;;;7.10;2.80;;;;;;5109466;28;20477;-76
2023/04/12 07:01:24;;;;;;;0.10;0.10;;;7.10;9.90;;;;;;5108574;28;20439;-76
2023/04/12 07:03:51;;;;;;;0.10;0.10;;;7.10;13.10;;;;;;5107025;27;20437;-76
2023/04/12 07:06:19;;;;;;;0.10;0.10;;;7.10;10.80;;;;;;5105958;27;20916;-75
2023/04/12 07:08:51;;;;;;;0.00;0.00;;;7.10;1.00;;;;;;5107538;27;20586;-76
2023/04/12 07:11:21;;;;;;;0.00;0.00;;;7.20;1.00;;;;;;5099633;27;20839;-75
2023/04/12 07:13:48;;;;;;;3.00;0.10;;;7.20;1.00;;;;;;5097300;27;20426;-75
2023/04/12 07:16:18;;;;;;;4.50;0.20;;;7.30;1.00;;;;;;5113051;27;20940;-75
2023/04/12 07:18:45;;;;;;;0.10;0.10;;;7.30;1.00;;;;;;5123691;27;20474;-75
2023/04/12 07:21:13;;;;;;;0.10;0.10;;;7.30;1.00;;;;;;5115925;27;20428;-76
2023/04/12 07:23:40;;;;;;;0.10;0.10;;;7.30;1.00;;;;;;5097466;27;20793;-75
2023/04/12 07:26:07;;;;;;;0.30;0.00;;;7.30;1.00;;;;;;5111072;27;20452;-75
2023/04/12 07:28:37;;;;;;;0.40;0.20;;;7.30;1.00;;;;;;5115087;27;20422;-76
2023/04/12 07:31:05;;;;;;;0.05;0.05;;;7.40;1.00;;;;;;5102461;28;20423;-75
2023/04/12 07:33:34;;;;;;;0.00;0.00;;;7.40;1.00;;;;;;5111723;27;20432;-75
2023/04/12 07:36:02;;;;;;;0.10;0.10;;;7.50;1.00;;;;;;5099745;27;21112;-75
2023/04/12 07:38:30;;;;;;;0.10;0.10;;;7.60;1.00;;;;;;5103190;27;20457;-76
2023/04/12 07:40:56;;;;;;;0.17;0.13;;;7.60;1.00;;;;;;5098739;27;21046;-75
2023/04/12 07:43:23;;;;;;;0.15;0.15;;;7.70;1.00;;;;;;5099693;27;20432;-76
2023/04/12 07:45:50;;;;;;;0.15;0.15;;;7.70;1.00;;;;;;5103511;27;20420;-75
2023/04/12 07:48:17;;;;;;;0.13;0.13;;;7.80;1.00;;;;;;5097148;28;20472;-75
2023/04/12 07:50:44;;;;;;;0.22;0.10;;;7.90;1.00;;;;;;5101053;27;20435;-75
2023/04/12 07:53:19;;;;;;;0.10;0.10;;;7.90;1.00;;;;;;5102446;27;20512;-76
2023/04/12 07:55:46;;;;;;;0.47;0.30;;;8.00;1.00;;;;;;5099967;28;20432;-76
2023/04/12 07:58:17;;;;;;;0.10;0.10;;;8.10;1.00;;;;;;5105330;28;20485;-75
2023/04/12 08:00:45;;;;;;;0.20;0.20;;;8.10;1.00;;;;;;5103120;27;20951;-75
2023/04/12 08:03:17;;;;;;;0.75;0.50;;;8.10;1.00;;;;;;5107166;27;20436;-75
2023/04/12 08:05:45;;;;;;;0.57;0.20;;;8.10;1.00;;;;;;5104374;27;20431;-76
2023/04/12 08:08:13;;;;;;;0.20;0.20;;;8.10;1.00;;;;;;5103608;27;20979;-75
2023/04/12 08:10:40;;;;;;;0.20;0.20;;;8.00;1.00;;;;;;5109434;27;20864;-74
2023/04/12 08:13:07;;;;;;;0.10;0.10;;;8.10;1.00;;;;;;5102355;27;21027;-75
2023/04/12 08:15:34;;;;;;;0.50;0.30;;;8.10;1.00;;;;;;5101106;28;20914;-74
2023/04/12 08:18:01;;;;;;;0.20;0.20;;;8.10;1.00;;;;;;5100874;28;20460;-75
2023/04/12 08:20:28;;;;;;;0.20;0.20;;;8.10;1.00;;;;;;5112946;27;20855;-75
2023/04/12 08:22:55;;;;;;;0.10;0.10;;;8.20;1.00;;;;;;5108021;27;20426;-75
2023/04/12 08:25:23;;;;;;;2.17;0.65;;;8.20;1.00;;;;;;5105098;27;20511;-74
2023/04/12 08:27:53;;;;;;;0.10;0.10;;;8.20;1.00;;;;;;5097000;28;20956;-74
2023/04/12 08:30:25;;;;;;;0.10;0.10;;;8.30;1.00;;;;;;5100375;28;20938;-73
2023/04/12 08:32:52;;;;;;;0.70;0.47;;;8.30;1.00;;;;;;5095323;27;20441;-74
2023/04/12 08:35:21;;;;;;;0.30;0.30;;;8.40;1.00;;;;;;5113942;27;20435;-75
2023/04/12 08:37:48;;;;;;;0.10;0.10;;;8.40;1.00;;;;;;5101785;27;20430;-73
2023/04/12 08:40:15;;;;;;;0.60;0.60;;;8.60;1.00;;;;;;5100943;27;20449;-72
2023/04/12 08:42:42;;;;;;;0.25;0.25;;;8.60;1.00;;;;;;5100429;27;20430;-74
2023/04/12 08:45:10;;;;;;;0.10;0.10;;;8.70;1.00;;;;;;5120918;27;20453;-73
2023/04/12 08:47:39;;;;;;;0.20;0.10;;;8.70;99.90;;;;;;5100222;27;20439;-73
2023/04/12 08:50:08;;;;;;;0.25;0.25;;;8.70;1.00;;;;;;5101286;28;20467;-73
2023/04/12 08:52:36;;;;;;;0.20;0.20;;;8.70;99.90;;;;;;5117684;27;20484;-73
2023/04/12 08:55:07;;;;;;;0.20;0.20;;;8.70;99.90;;;;;;5100729;27;20464;-73
2023/04/12 08:57:35;;;;;;;0.20;0.15;;;8.70;99.90;;;;;;5109119;27;20426;-73
2023/04/12 09:00:06;;;;;;;0.40;0.20;;;8.70;99.90;;;;;;5105522;27;20433;-73
2023/04/12 09:02:36;;;;;;;0.10;0.10;;;8.70;99.90;;;;;;5115576;27;20427;-74
2023/04/12 09:05:05;;;;;;;0.15;0.15;;;8.80;99.90;;;;;;5093555;28;20471;-74
2023/04/12 09:07:32;;;;;;;0.20;0.20;;;8.90;99.90;;;;;;5100793;28;20793;-73
2023/04/12 09:09:59;;;;;;;0.10;0.10;;;9.00;99.90;;;;;;5092290;28;20563;-73
2023/04/12 09:12:26;;;;;;;0.43;0.30;;;9.10;99.90;;;;;;5095120;28;20801;-74
2023/04/12 09:15:11;;;;;;;0.25;0.25;;;9.10;99.90;;;;;;5098968;27;20509;-74
2023/04/12 09:17:41;;;;;;;0.40;0.40;;;9.10;99.90;;;;;;5106134;27;20442;-73
2023/04/12 09:20:11;;;;;;;0.20;0.20;;;9.00;99.90;;;;;;5087185;28;20871;-73
2023/04/12 09:22:43;;;;;;;1.20;0.22;;;9.00;99.90;;;;;;5107885;28;20529;-74
2023/04/12 09:25:11;;;;;;;0.20;0.20;;;9.00;99.90;;;;;;5103821;27;20447;-73
2023/04/12 09:27:49;;;;;;;0.30;0.30;;;9.00;99.90;;;;;;5089256;28;20433;-73
2023/04/12 09:30:16;;;;;;;0.50;0.20;;;9.10;99.90;;;;;;5090699;28;20924;-74
2023/04/12 09:32:44;;;;;;;1.77;0.60;;;9.10;99.90;;;;;;5088239;28;20440;-74
2023/04/12 09:35:11;;;;;;;0.10;0.10;;;9.20;99.90;;;;;;5089112;28;20437;-73
2023/04/12 09:37:39;;;;;;;0.20;0.20;;;9.20;99.90;;;;;;5100831;28;20544;-73
2023/04/12 09:40:08;;;;;;;0.47;0.47;;;9.20;99.90;;;;;;5098563;28;20483;-73
2023/04/12 09:42:47;;;;;;;0.17;0.17;;;9.30;99.90;;;;;;5107317;28;20424;-73
2023/04/12 09:45:24;;;;;;;0.30;0.30;;;9.40;99.90;;;;;;5100691;28;20440;-73
2023/04/12 09:47:51;;;;;;;0.20;0.20;;;9.60;99.90;;;;;;5097803;28;20955;-73
2023/04/12 09:50:23;;;;;;;0.30;0.30;;;9.50;1.00;;;;;;5097472;28;21004;-73
2023/04/12 09:52:52;;;;;;;0.40;0.40;;;9.50;99.90;;;;;;5095504;28;20426;-73
2023/04/12 09:55:22;;;;;;;0.40;0.40;;;9.60;99.90;;;;;;5089414;28;20456;-73
2023/04/12 09:57:52;;;;;;;0.30;0.30;;;9.70;99.90;;;;;;5114404;28;20845;-73
2023/04/12 10:00:27;;;;;;;0.20;0.20;;;9.50;1.00;;;;;;5111018;28;20435;-73
2023/04/12 10:02:54;;;;;;;0.30;0.30;;;9.50;96.20;;;;;;5105890;28;20418;-73
2023/04/12 10:05:29;;;;;;;0.40;0.40;;;9.50;99.90;;;;;;5105275;27;20421;-73
2023/04/12 10:08:04;;;;;;;6.03;0.35;;;9.50;99.90;;;;;;5092139;28;20434;-73
2023/04/12 10:10:34;;;;;;;0.25;0.20;;;9.60;99.90;;;;;;5098056;28;20464;-73
2023/04/12 10:13:01;;;;;;;0.13;0.13;;;9.60;99.90;;;;;;5094188;28;20468;-73
2023/04/12 10:15:31;;;;;;;0.20;0.20;;;9.60;99.90;;;;;;5103146;28;20467;-73
2023/04/12 10:17:58;;;;;;;0.28;0.28;;;9.50;99.90;;;;;;5097310;28;20863;-73
2023/04/12 10:20:25;;;;;;;2.25;0.77;;;9.50;99.90;;;;;;5101786;28;20420;-73
2023/04/12 10:22:56;;;;;;;0.50;0.50;;;9.70;1.00;;;;;;5107941;28;20977;-73
2023/04/12 10:25:26;;;;;;;0.45;0.45;;;9.70;99.90;;;;;;5089762;28;20452;-74
2023/04/12 10:27:52;;;;;;;0.25;0.25;;;9.80;1.00;;;;;;5086755;28;20437;-73
2023/04/12 10:30:22;;;;;;;0.40;0.40;;;9.80;99.90;;;;;;5112443;28;20452;-73
2023/04/12 10:33:04;;;;;;;0.70;0.60;;;9.70;99.90;;;;;;5102574;28;20429;-73
2023/04/12 10:35:54;;;;;;;0.38;0.38;;;9.70;99.90;;;;;;5100268;28;20462;-73
2023/04/12 10:38:26;;;;;;;0.60;0.50;;;9.80;1.00;;;;;;5099884;28;20972;-73
2023/04/12 10:41:09;;;;;;;0.60;0.55;;;9.90;99.90;;;;;;5102461;27;20427;-73
2023/04/12 10:43:49;;;;;;;0.40;0.40;;;10.00;99.90;;;;;;5095285;27;20439;-73
2023/04/12 10:46:37;;;;;;;0.60;0.45;;;10.00;1.00;;;;;;5111326;28;20845;-72
2023/04/12 10:49:15;;;;;;;0.40;0.40;;;9.90;99.90;;;;;;5101844;28;20461;-73
2023/04/12 10:52:04;;;;;;;0.30;0.30;;;9.80;99.90;;;;;;5097097;28;20480;-72
2023/04/12 10:54:35;;;;;;;0.57;0.57;;;9.90;99.90;;;;;;5091066;28;20436;-73
2023/04/12 10:57:26;;;;;;;0.47;0.47;;;10.00;99.90;;;;;;5092865;28;20422;-72
2023/04/12 10:59:58;;;;;;;0.30;0.30;;;10.20;99.90;;;;;;5100810;27;20436;-73
2023/04/12 11:02:28;;;;;;;0.20;0.20;;;10.30;99.90;;;;;;5107978;27;20426;-73
2023/04/12 11:05:09;;;;;;;0.73;0.57;;;10.50;99.90;;;;;;5114973;27;20473;-72
2023/04/12 11:07:41;;;;;;;0.50;0.50;;;10.50;33.30;;;;;;5120304;27;20456;-73
2023/04/12 11:10:15;;;;;;;0.25;0.25;;;10.40;1.00;;;;;;5109374;28;20428;-72
2023/04/12 11:12:56;;;;;;;0.27;0.27;;;10.40;1.00;;;;;;5099081;28;20468;-72
2023/04/12 11:15:26;;;;;;;5.50;0.40;;;10.40;1.00;;;;;;5101824;28;20428;-72
2023/04/12 11:17:56;;;;;;;0.40;0.40;;;10.40;1.00;;;;;;5116104;27;20433;-71
2023/04/12 11:20:26;;;;;;;0.25;0.25;;;10.50;1.00;;;;;;5121158;27;20424;-72
2023/04/12 11:22:54;;;;;;;0.70;0.50;;;10.60;44.80;;;;;;5094417;28;20429;-72
2023/04/12 11:25:21;;;;;;;2.75;0.50;;;10.60;99.90;;;;;;5098227;28;20430;-72
2023/04/12 11:27:52;;;;;;;0.38;0.38;;;10.60;99.90;;;;;;5104895;27;20973;-71
2023/04/12 11:30:19;;;;;;;0.63;0.63;;;10.60;99.90;;;;;;5113580;27;20449;-72
2023/04/12 11:32:46;;;;;;;0.17;0.17;;;10.60;99.90;;;;;;5109174;27;21141;-72
2023/04/12 11:35:14;;;;;;;0.50;0.50;;;10.60;99.90;;;;;;5114114;27;20436;-72
2023/04/12 11:37:43;;;;;;;0.28;0.28;;;10.70;99.90;;;;;;5104355;27;20466;-71
2023/04/12 11:40:10;;;;;;;0.55;0.50;;;10.80;99.90;;;;;;5097343;27;21170;-72
2023/04/12 11:42:39;;;;;;;0.60;0.35;;;10.70;99.90;;;;;;5109628;27;20510;-71
2023/04/12 11:45:07;;;;;;;0.57;0.50;;;10.80;99.90;;;;;;5106599;27;20471;-71
2023/04/12 11:47:44;;;;;;;0.38;0.38;;;10.80;99.90;;;;;;5098027;28;20858;-72
2023/04/12 11:50:11;;;;;;;1.15;0.60;;;10.80;99.90;;;;;;5108568;28;20431;-72
2023/04/12 11:52:41;;;;;;;0.28;0.28;;;10.90;99.90;;;;;;5117439;27;20506;-72
2023/04/12 11:55:09;;;;;;;0.40;0.40;;;11.30;99.90;;;;;;5111669;27;20523;-71
2023/04/12 11:57:38;;;;;;;0.40;0.40;;;11.30;99.90;;;;;;5111875;27;20442;-71
2023/04/12 12:00:05;;;;;;;0.60;0.60;;;11.40;99.90;;;;;;5095034;28;20472;-71
2023/04/12 12:02:34;;;;;;;0.23;0.23;;;11.50;99.90;;;;;;5106864;27;20476;-71
2023/04/12 12:05:12;;;;;;;0.52;0.47;;;11.60;99.90;;;;;;5112289;27;20425;-71
2023/04/12 12:07:42;;;;;;;0.40;0.40;;;11.70;99.90;;;;;;5111225;28;20932;-71
2023/04/12 12:10:09;;;;;;;1.20;0.40;;;11.80;99.90;;;;;;5095048;28;20430;-71
2023/04/12 12:12:36;;;;;;;0.20;0.20;;;11.60;99.90;;;;;;5109105;27;20428;-70
2023/04/12 12:15:03;;;;;;;0.30;0.30;;;11.50;99.90;;;;;;5101892;27;20422;-71
2023/04/12 12:17:37;;;;;;;0.97;0.57;;;11.40;99.90;;;;;;5102584;28;20457;-71
2023/04/12 12:20:05;;;;;;;1.80;0.50;;;11.40;99.90;;;;;;5096261;27;20831;-70
2023/04/12 12:22:33;;;;;;;0.50;0.50;;;11.50;99.90;;;;;;5119574;27;20419;-69
2023/04/12 12:25:00;;;;;;;0.45;0.38;;;11.70;99.90;;;;;;5097739;27;20445;-70
2023/04/12 12:27:36;;;;;;;0.30;0.30;;;11.60;99.90;;;;;;5103689;27;20421;-71
2023/04/12 12:30:06;;;;;;;0.40;0.40;;;11.40;99.90;;;;;;5108809;27;20978;-70
2023/04/12 12:32:35;;;;;;;0.47;0.47;;;11.30;99.90;;;;;;5113525;27;20431;-71
2023/04/12 12:35:08;;;;;;;0.43;0.43;;;11.20;99.90;;;;;;5097064;27;20434;-70
2023/04/12 12:37:35;;;;;;;0.50;0.50;;;11.30;99.90;;;;;;5098084;28;20448;-71
2023/04/12 12:40:15;;;;;;;0.50;0.50;;;11.30;99.90;;;;;;5105574;27;20426;-71
2023/04/12 12:42:53;;;;;;;0.60;0.40;;;11.50;99.90;;;;;;5107222;27;20888;-71
2023/04/12 12:45:28;;;;;;;0.40;0.40;;;11.60;99.90;;;;;;5085914;27;20453;-72
2023/04/12 12:48:02;;;;;;;0.30;0.30;;;11.60;99.90;;;;;;5096699;28;20565;-73
2023/04/12 12:50:32;;;;;;;0.40;0.40;;;11.40;99.90;;;;;;5108785;27;20508;-72
2023/04/12 12:53:00;;;;;;;0.20;0.20;;;11.20;99.90;;;;;;5113119;27;20456;-71
2023/04/12 12:55:30;;;;;;;0.28;0.28;;;11.20;99.90;;;;;;5093785;27;20468;-72
2023/04/12 12:57:57;;;;;;;0.30;0.30;;;11.10;99.90;;;;;;5095330;27;20431;-71
2023/04/12 13:00:28;;;;;;;0.40;0.40;;;11.00;99.90;;;;;;5095936;27;21018;-72
2023/04/12 13:02:55;;;;;;;0.38;0.38;;;11.10;99.90;;;;;;5101670;27;20433;-72
2023/04/12 13:05:22;;;;;;;3.40;0.52;;;11.10;99.90;;;;;;5092918;28;20957;-71
2023/04/12 13:07:49;;;;;;;1.90;0.63;;;11.00;99.90;;;;;;5094343;28;20454;-72
2023/04/12 13:10:16;;;;;;;0.30;0.30;;;11.00;99.90;;;;;;5099571;27;20460;-72
2023/04/12 13:12:43;;;;;;;0.32;0.25;;;11.00;99.90;;;;;;5097262;27;20454;-72